PHTO/ITO METAR and TAF weather

Enter ICAO airport designator
Station Type Date Time Source
PHTO METAR 2019/12/07 05:02 UTC NOAA

PHTO 070502Z 22004KT 9SM SCT020 OVC027 21/19 A2995 RMK AO2 RAE0458 P0000 T02110194


Station Type Date Time Source
PHTO Decoded METAR 2019/12/07 05:02 UTC NOAA

HILO INTERNATIONAL AIRPORT, HI, United States (PHTO) 19-43N 155-03W 12M
Dec 07, 2019 - 12:02 AM EST / 2019.12.07 0502 UTC
Wind: from the SW (220 degrees) at 5 MPH (4 KT):0
Visibility: 9 mile(s):0
Sky conditions: overcast
Precipitation last hour: A trace
Temperature: 70.0 F (21.1 C)
Dew Point: 66.9 F (19.4 C)
Relative Humidity: 90%
Pressure (altimeter): 29.95 in. Hg (1014 hPa)
ob: PHTO 070502Z 22004KT 9SM SCT020 OVC027 21/19 A2995 RMK AO2 RAE0458 P0000 T02110194
cycle: 5

Station Type Date Time Source
PHTO TAF 2019/12/06 18:45 UTC NOAA

TAF PHTO 061742Z 0618/0718 23005KT 6SM SHRA SCT018 BKN045
FM062200 VRB06KT P6SM SHRA SCT025 BKN030
FM070600 VRB06KT P6SM VCSH SCT025 BKN045

Example: see airport list